Time;durP1;ratioP1;P1;durP2;ratioP2;P2;SDS_P1;SDS_P2;PMS_P1;PMS_P2;Temp;Humidity;BMP_temperature;BMP_pressure;BME280_temperature;BME280_humidity;BME280_pressure;Samples;Min_cycle;Max_cycle;Signal;HPM_P1;HPM_P2
2021/05/29 00:01:14;;;;;;;6.07;2.08;;;;;15.10;99872.00;;;;5088410;28;20089;-69
2021/05/29 00:03:41;;;;;;;4.10;2.80;;;;;15.10;99846.00;;;;5088517;28;20111;-69
2021/05/29 00:06:08;;;;;;;3.92;2.20;;;;;15.00;99846.00;;;;5088909;28;20036;-68
2021/05/29 00:08:34;;;;;;;5.97;2.30;;;;;15.00;99847.00;;;;5088328;28;20024;-68
2021/05/29 00:11:02;;;;;;;3.75;2.30;;;;;15.00;99883.00;;;;5088337;28;20047;-69
2021/05/29 00:13:31;;;;;;;4.95;2.63;;;;;15.00;99886.00;;;;5087921;28;20028;-69
2021/05/29 00:15:58;;;;;;;6.60;2.45;;;;;15.00;99916.00;;;;5088611;28;20153;-69
2021/05/29 00:18:25;;;;;;;11.85;2.67;;;;;15.00;99885.00;;;;5088789;28;20024;-69
2021/05/29 00:20:53;;;;;;;35.17;4.00;;;;;15.00;99834.00;;;;5088138;28;20020;-69
2021/05/29 00:23:20;;;;;;;7.20;2.55;;;;;15.00;99826.00;;;;5087710;28;20016;-69
2021/05/29 00:25:47;;;;;;;6.82;2.75;;;;;15.00;99813.00;;;;5087785;28;20538;-69
2021/05/29 00:28:15;;;;;;;11.80;3.28;;;;;15.00;99838.00;;;;5088705;28;20063;-70
2021/05/29 00:30:43;;;;;;;49.80;37.13;;;;;15.00;99834.00;;;;5088213;28;20494;-69
2021/05/29 00:33:10;;;;;;;17.60;7.50;;;;;15.00;99848.00;;;;5088101;28;20103;-69
2021/05/29 00:35:37;;;;;;;8.18;4.13;;;;;15.00;99848.00;;;;5087908;28;20023;-70
2021/05/29 00:38:04;;;;;;;6.15;3.15;;;;;15.00;99878.00;;;;5087376;28;20086;-69
2021/05/29 00:40:31;;;;;;;10.02;3.45;;;;;15.00;99887.00;;;;5088000;28;20020;-70
2021/05/29 00:42:58;;;;;;;5.43;4.05;;;;;15.00;99901.00;;;;5087876;28;20023;-69
2021/05/29 00:45:25;;;;;;;37.55;15.50;;;;;15.00;99911.00;;;;5087836;28;20031;-70
2021/05/29 00:47:51;;;;;;;10.10;3.90;;;;;15.00;99925.00;;;;5087666;28;20028;-69
2021/05/29 00:50:18;;;;;;;18.15;13.27;;;;;15.00;99938.00;;;;5087685;28;20024;-70
2021/05/29 00:52:44;;;;;;;23.00;9.27;;;;;15.00;99952.00;;;;5087483;28;20402;-70
2021/05/29 00:55:14;;;;;;;20.83;6.40;;;;;15.00;99919.00;;;;5087883;28;20051;-70
2021/05/29 00:57:42;;;;;;;11.15;4.95;;;;;15.00;99892.00;;;;5087567;28;20111;-71
2021/05/29 01:00:10;;;;;;;16.83;4.68;;;;;15.00;99871.00;;;;5087827;28;20535;-70
2021/05/29 01:02:37;;;;;;;15.32;6.50;;;;;15.00;99856.00;;;;5087717;28;20076;-70
2021/05/29 01:05:08;;;;;;;14.95;6.10;;;;;15.00;99832.00;;;;5087086;28;20028;-71
2021/05/29 01:07:35;;;;;;;11.80;4.85;;;;;15.00;99808.00;;;;5087389;28;20066;-69
2021/05/29 01:10:05;;;;;;;7.20;4.50;;;;;14.90;99805.00;;;;5069240;28;20078;-70
2021/05/29 01:12:31;;;;;;;9.82;4.47;;;;;14.90;99790.00;;;;5087454;28;20028;-69
2021/05/29 01:15:00;;;;;;;10.68;3.90;;;;;14.90;99768.00;;;;5086689;28;20024;-69
2021/05/29 01:17:29;;;;;;;4.07;3.25;;;;;14.90;99795.00;;;;5086373;28;20028;-70
2021/05/29 01:19:56;;;;;;;6.72;3.50;;;;;14.90;99791.00;;;;5087064;28;20103;-69
2021/05/29 01:22:37;;;;;;;23.50;3.65;;;;;14.90;99787.00;;;;5087329;28;20020;-69
2021/05/29 01:25:25;;;;;;;9.52;3.28;;;;;14.90;99746.00;;;;5087631;28;20024;-68
2021/05/29 01:27:59;;;;;;;3.95;2.40;;;;;14.90;99709.00;;;;5086530;28;20035;-69
2021/05/29 01:30:31;;;;;;;8.18;2.67;;;;;14.90;99683.00;;;;5086899;28;20035;-70
2021/05/29 01:33:00;;;;;;;6.95;2.00;;;;;14.90;99663.00;;;;5087029;28;20115;-69
2021/05/29 01:35:27;;;;;;;2.92;2.33;;;;;14.90;99660.00;;;;5086431;28;20099;-70
2021/05/29 01:37:54;;;;;;;2.47;1.65;;;;;14.90;99646.00;;;;5086749;28;20058;-71
2021/05/29 01:40:21;;;;;;;4.82;1.60;;;;;14.90;99620.00;;;;5086295;28;20027;-70
2021/05/29 01:42:48;;;;;;;4.07;1.75;;;;;14.80;99629.00;;;;5086794;28;20024;-70
2021/05/29 01:45:15;;;;;;;3.97;1.75;;;;;14.80;99630.00;;;;5086653;28;20076;-68
2021/05/29 01:47:44;;;;;;;2.25;1.90;;;;;14.80;99609.00;;;;5085906;28;20036;-69
2021/05/29 01:50:13;;;;;;;5.88;2.10;;;;;14.80;99577.00;;;;5085211;28;20111;-70
2021/05/29 01:52:48;;;;;;;4.75;2.15;;;;;14.80;99571.00;;;;5085772;28;20024;-70
2021/05/29 01:55:17;;;;;;;3.28;2.35;;;;;14.80;99534.00;;;;5085454;28;20127;-71
2021/05/29 01:57:44;;;;;;;2.60;2.40;;;;;14.70;99476.00;;;;5086694;28;20031;-70
2021/05/29 02:00:12;;;;;;;2.38;1.98;;;;;14.70;99477.00;;;;5086504;28;20074;-69
2021/05/29 02:02:39;;;;;;;2.70;1.92;;;;;14.70;99468.00;;;;5086507;28;20020;-69
2021/05/29 02:05:18;;;;;;;3.85;2.38;;;;;14.70;99472.00;;;;5086508;28;20077;-69
2021/05/29 02:07:46;;;;;;;3.00;2.70;;;;;14.70;99435.00;;;;5086594;28;20023;-71
2021/05/29 02:10:20;;;;;;;8.35;2.10;;;;;14.70;99430.00;;;;5086224;28;20035;-68
2021/05/29 02:12:54;;;;;;;2.83;2.05;;;;;14.70;99444.00;;;;5086013;28;20024;-69
2021/05/29 02:26:19;;;;;;;3.08;1.20;;;;;14.80;99402.00;;;;5082911;27;20925;-74
2021/05/29 02:28:49;;;;;;;2.47;1.10;;;;;14.80;99366.00;;;;5083054;28;20044;-74
2021/05/29 02:31:17;;;;;;;1.08;1.00;;;;;14.80;99392.00;;;;5083432;28;20086;-73
2021/05/29 02:33:43;;;;;;;0.70;0.70;;;;;14.90;99435.00;;;;5082179;28;20044;-73
2021/05/29 02:36:11;;;;;;;0.95;0.65;;;;;14.90;99444.00;;;;5082623;28;20417;-72
2021/05/29 02:38:38;;;;;;;1.45;0.50;;;;;14.90;99481.00;;;;5083076;28;20031;-75
2021/05/29 02:41:08;;;;;;;0.98;0.70;;;;;15.00;99480.00;;;;5082546;28;20122;-73
2021/05/29 02:43:35;;;;;;;1.52;0.80;;;;;15.00;99470.00;;;;5082547;28;20036;-73
2021/05/29 02:46:02;;;;;;;2.15;0.65;;;;;14.90;99463.00;;;;5082108;28;20032;-74
2021/05/29 02:48:28;;;;;;;2.25;1.27;;;;;14.90;99409.00;;;;5082658;28;20066;-74
2021/05/29 02:50:55;;;;;;;5.72;0.93;;;;;14.90;99419.00;;;;5082834;28;20506;-73
2021/05/29 02:53:22;;;;;;;0.98;0.98;;;;;14.90;99461.00;;;;5082459;28;20032;-74
2021/05/29 02:55:48;;;;;;;1.05;0.80;;;;;14.80;99406.00;;;;5082708;28;20407;-74
2021/05/29 02:58:15;;;;;;;4.13;0.93;;;;;14.80;99362.00;;;;5081839;28;20029;-73
2021/05/29 03:00:45;;;;;;;1.40;0.73;;;;;14.80;99384.00;;;;5082725;28;20771;-73
2021/05/29 03:03:12;;;;;;;2.15;0.80;;;;;14.80;99365.00;;;;5082558;28;20570;-74
2021/05/29 03:05:45;;;;;;;0.88;0.85;;;;;14.70;99410.00;;;;5081812;28;20540;-73
2021/05/29 03:08:13;;;;;;;5.22;1.10;;;;;14.80;99414.00;;;;5082527;28;20074;-73
2021/05/29 03:10:45;;;;;;;1.45;1.00;;;;;14.80;99441.00;;;;5081834;28;20493;-73
2021/05/29 03:13:11;;;;;;;;;;;;;14.80;99425.00;;;;5082588;28;20596;-73
2021/05/29 03:15:38;;;;;;;1.92;1.23;;;;;14.80;99437.00;;;;5082088;28;19927;-74
2021/05/29 03:18:06;;;;;;;1.83;0.77;;;;;14.80;99455.00;;;;5082985;28;20093;-74
2021/05/29 03:20:34;;;;;;;4.22;1.15;;;;;14.80;99434.00;;;;5082548;28;20066;-74
2021/05/29 03:23:00;;;;;;;2.13;0.93;;;;;14.80;99446.00;;;;5082269;28;20040;-74
2021/05/29 03:25:27;;;;;;;2.33;1.42;;;;;14.80;99458.00;;;;5077210;28;20044;-73
2021/05/29 03:27:54;;;;;;;2.95;1.42;;;;;14.80;99476.00;;;;5068195;28;20506;-74
2021/05/29 03:30:26;;;;;;;3.10;1.40;;;;;14.90;99468.00;;;;5068997;28;20024;-74
2021/05/29 03:32:53;;;;;;;7.15;1.60;;;;;14.90;99460.00;;;;5068317;28;20134;-74
2021/05/29 03:35:20;;;;;;;4.18;1.80;;;;;14.90;99478.00;;;;5066925;28;20818;-74
2021/05/29 03:37:47;;;;;;;1.98;1.50;;;;;14.80;99472.00;;;;5068694;28;20150;-73
2021/05/29 03:40:15;;;;;;;1.58;1.40;;;;;14.90;99485.00;;;;5069374;28;20028;-73
2021/05/29 03:42:42;;;;;;;2.90;1.40;;;;;15.00;99502.00;;;;5068242;28;20032;-73
2021/05/29 03:45:14;;;;;;;2.78;1.60;;;;;15.00;99531.00;;;;5067545;28;20048;-74
2021/05/29 03:47:45;;;;;;;3.65;1.60;;;;;15.00;99535.00;;;;5068667;28;20499;-75
2021/05/29 03:50:16;;;;;;;5.07;1.90;;;;;14.90;99538.00;;;;5068306;28;20021;-74
2021/05/29 03:52:43;;;;;;;4.40;2.42;;;;;15.00;99511.00;;;;5068201;28;20025;-73
2021/05/29 03:55:11;;;;;;;6.93;2.45;;;;;14.90;99513.00;;;;5067895;28;20536;-73
2021/05/29 03:57:37;;;;;;;4.15;2.72;;;;;14.90;99503.00;;;;5068480;28;20128;-74
2021/05/29 04:00:06;;;;;;;6.85;3.05;;;;;14.90;99504.00;;;;5068785;28;20457;-73
2021/05/29 04:02:33;;;;;;;6.75;3.92;;;;;14.90;99526.00;;;;5068315;28;20040;-74
2021/05/29 04:04:59;;;;;;;7.30;4.13;;;;;14.90;99529.00;;;;5067805;28;20078;-74
2021/05/29 04:07:26;;;;;;;6.13;4.22;;;;;14.90;99495.00;;;;5067539;28;20576;-74
2021/05/29 04:09:53;;;;;;;8.07;4.70;;;;;14.90;99507.00;;;;5067945;28;20039;-74
2021/05/29 04:12:19;;;;;;;7.72;5.18;;;;;14.80;99516.00;;;;5068729;28;20029;-73
2021/05/29 04:14:45;;;;;;;9.25;5.53;;;;;14.90;99521.00;;;;5067623;28;20155;-73
2021/05/29 04:17:12;;;;;;;12.40;6.32;;;;;14.90;99530.00;;;;5067759;28;20028;-73
2021/05/29 04:19:39;;;;;;;11.60;5.60;;;;;14.90;99562.00;;;;5067637;28;20064;-74
2021/05/29 04:22:05;;;;;;;12.77;6.10;;;;;14.90;99579.00;;;;5067410;28;20021;-74
2021/05/29 04:24:32;;;;;;;14.43;6.22;;;;;14.90;99592.00;;;;5067827;28;20044;-74
2021/05/29 04:26:59;;;;;;;10.73;5.68;;;;;14.80;99585.00;;;;5067764;28;20031;-73
2021/05/29 04:29:26;;;;;;;13.90;6.80;;;;;14.80;99610.00;;;;5067519;28;20082;-74
2021/05/29 04:31:52;;;;;;;13.23;6.03;;;;;14.80;99627.00;;;;5067644;28;20115;-73
2021/05/29 04:34:19;;;;;;;11.50;5.85;;;;;14.80;99622.00;;;;5067189;28;20032;-73
2021/05/29 04:36:45;;;;;;;12.68;6.22;;;;;14.80;99632.00;;;;5067282;28;20376;-74
2021/05/29 04:39:12;;;;;;;12.27;5.95;;;;;14.90;99636.00;;;;5067250;28;20512;-73
2021/05/29 04:41:38;;;;;;;13.75;5.60;;;;;14.90;99630.00;;;;5067266;28;20020;-73
2021/05/29 04:44:05;;;;;;;14.07;6.03;;;;;14.90;99605.00;;;;5067398;28;20032;-73
2021/05/29 04:46:38;;;;;;;12.50;5.97;;;;;14.90;99618.00;;;;5067166;28;20526;-73
2021/05/29 04:49:06;;;;;;;14.18;6.32;;;;;14.90;99606.00;;;;5067198;28;20112;-73
2021/05/29 04:51:33;;;;;;;9.93;6.20;;;;;14.90;99610.00;;;;5067460;28;20024;-72
2021/05/29 04:53:59;;;;;;;12.25;6.75;;;;;14.90;99604.00;;;;5066937;28;20032;-73
2021/05/29 04:56:26;;;;;;;14.23;6.45;;;;;14.80;99595.00;;;;5066800;28;20032;-73
2021/05/29 04:58:52;;;;;;;13.68;6.75;;;;;14.80;99603.00;;;;5066737;28;20403;-73
2021/05/29 05:01:19;;;;;;;15.13;6.75;;;;;14.80;99628.00;;;;5067140;28;20123;-73
2021/05/29 05:03:45;;;;;;;12.15;6.78;;;;;14.80;99623.00;;;;5067163;28;20441;-73
2021/05/29 05:06:12;;;;;;;12.50;7.18;;;;;14.80;99623.00;;;;5067399;28;20028;-74
2021/05/29 05:08:39;;;;;;;13.43;7.13;;;;;14.70;99623.00;;;;5066460;28;20025;-73
2021/05/29 05:11:05;;;;;;;16.83;7.50;;;;;14.70;99598.00;;;;5066543;28;20025;-73
2021/05/29 05:13:32;;;;;;;16.60;7.93;;;;;14.70;99604.00;;;;5066778;28;20020;-73
2021/05/29 05:15:58;;;;;;;19.00;8.38;;;;;14.70;99593.00;;;;5067020;28;20032;-73
2021/05/29 05:18:25;;;;;;;15.25;8.43;;;;;14.70;99596.00;;;;5066673;28;20138;-73
2021/05/29 05:20:52;;;;;;;17.88;8.48;;;;;14.70;99609.00;;;;5066740;28;20035;-73
2021/05/29 05:23:22;;;;;;;16.15;8.02;;;;;14.70;99609.00;;;;5067320;28;20485;-74
2021/05/29 05:25:52;;;;;;;18.48;8.35;;;;;14.70;99616.00;;;;5066166;28;20052;-73
2021/05/29 05:28:20;;;;;;;14.27;7.28;;;;;14.70;99607.00;;;;5066950;28;20111;-73
2021/05/29 05:30:48;;;;;;;17.67;6.38;;;;;14.60;99616.00;;;;5066688;28;20043;-73
2021/05/29 05:33:15;;;;;;;16.38;6.38;;;;;14.60;99635.00;;;;5066139;28;20035;-73
2021/05/29 05:35:43;;;;;;;11.77;6.30;;;;;14.60;99629.00;;;;5066614;28;20040;-74
2021/05/29 05:38:09;;;;;;;11.25;5.97;;;;;14.60;99628.00;;;;5066121;28;20036;-73
2021/05/29 05:40:36;;;;;;;12.73;6.10;;;;;14.60;99640.00;;;;5066888;28;20017;-73
2021/05/29 05:43:02;;;;;;;9.77;5.78;;;;;14.50;99639.00;;;;5065536;28;20020;-73
2021/05/29 05:45:29;;;;;;;10.75;5.07;;;;;14.50;99641.00;;;;5065620;28;20028;-73
2021/05/29 05:47:57;;;;;;;6.95;5.05;;;;;14.60;99642.00;;;;5067077;28;20070;-73
2021/05/29 05:50:24;;;;;;;7.57;4.82;;;;;14.50;99638.00;;;;5065683;28;20033;-74
2021/05/29 05:52:50;;;;;;;8.00;4.75;;;;;14.50;99625.00;;;;5066098;28;20032;-73
2021/05/29 05:55:17;;;;;;;9.18;5.03;;;;;14.50;99653.00;;;;5066156;28;20509;-73
2021/05/29 05:57:44;;;;;;;10.02;4.93;;;;;14.40;99640.00;;;;5066322;28;20541;-74
2021/05/29 06:00:14;;;;;;;8.32;4.30;;;;;14.40;99658.00;;;;5066281;28;20056;-73
2021/05/29 06:02:46;;;;;;;10.73;5.15;;;;;14.40;99662.00;;;;5066421;28;20499;-73
2021/05/29 06:05:14;;;;;;;9.80;5.10;;;;;14.40;99662.00;;;;5066459;28;20498;-73
2021/05/29 06:07:41;;;;;;;6.78;4.45;;;;;14.30;99680.00;;;;5066403;28;20021;-73
2021/05/29 06:10:08;;;;;;;10.85;5.20;;;;;14.20;99673.00;;;;5065510;28;20028;-73
2021/05/29 06:12:40;;;;;;;11.90;5.57;;;;;14.30;99666.00;;;;5065450;28;20075;-73
2021/05/29 06:20:31;;;;;;;10.55;6.68;;;;;14.40;99711.00;;;;5065393;28;20031;-73
2021/05/29 06:22:58;;;;;;;10.20;6.32;;;;;14.40;99700.00;;;;5065530;28;20032;-73
2021/05/29 06:25:25;;;;;;;9.93;6.93;;;;;14.40;99705.00;;;;5066016;28;20060;-73
2021/05/29 06:27:51;;;;;;;18.52;8.60;;;;;14.40;99713.00;;;;5065921;28;20021;-73
2021/05/29 06:30:18;;;;;;;9.90;7.38;;;;;14.40;99690.00;;;;5065809;28;20479;-73
2021/05/29 06:32:45;;;;;;;14.55;8.02;;;;;14.30;99706.00;;;;5065226;28;20029;-73
2021/05/29 06:35:12;;;;;;;15.13;7.05;;;;;14.30;99701.00;;;;5065866;28;20063;-73
2021/05/29 06:37:38;;;;;;;7.97;6.35;;;;;14.30;99702.00;;;;5065041;28;20102;-72
2021/05/29 06:40:07;;;;;;;9.85;5.38;;;;;14.40;99706.00;;;;5065812;28;20082;-73
2021/05/29 06:42:33;;;;;;;9.45;6.10;;;;;14.40;99705.00;;;;5066392;28;20101;-73
2021/05/29 06:45:00;;;;;;;9.10;6.53;;;;;14.30;99707.00;;;;5065460;28;20032;-73
2021/05/29 06:47:27;;;;;;;8.48;6.55;;;;;14.40;99705.00;;;;5065804;28;20081;-73
2021/05/29 06:49:53;;;;;;;9.18;6.93;;;;;14.40;99704.00;;;;5066331;28;20379;-72
2021/05/29 06:52:23;;;;;;;12.50;6.38;;;;;14.40;99698.00;;;;5065780;28;20530;-73
2021/05/29 06:58:35;;;;;;;11.10;5.65;;;;;14.40;99702.00;;;;5065517;28;20037;-72
2021/05/29 07:00:34;;;;;;;11.27;4.18;;;;;14.40;99725.00;;;;5066134;28;20039;-73
2021/05/29 07:03:01;;;;;;;4.70;3.83;;;;;14.40;99723.00;;;;5069219;28;20028;-73
2021/05/29 07:05:27;;;;;;;7.68;3.83;;;;;14.50;99707.00;;;;5069359;28;20032;-73
2021/05/29 07:07:54;;;;;;;9.00;4.28;;;;;14.50;99720.00;;;;5069147;28;20021;-73
2021/05/29 07:10:20;;;;;;;4.35;3.47;;;;;14.50;99709.00;;;;5069131;28;20024;-73
2021/05/29 07:12:47;;;;;;;5.22;3.63;;;;;14.50;99700.00;;;;5068862;28;20063;-73
2021/05/29 07:15:14;;;;;;;7.35;3.40;;;;;14.50;99698.00;;;;5068486;28;20036;-73
2021/05/29 07:17:43;;;;;;;5.10;3.40;;;;;14.50;99703.00;;;;5069142;28;20028;-73
2021/05/29 07:20:11;;;;;;;7.22;3.53;;;;;14.50;99724.00;;;;5068772;28;20040;-73
2021/05/29 07:22:38;;;;;;;6.15;3.17;;;;;14.50;99712.00;;;;5068692;28;20025;-73
2021/05/29 07:25:06;;;;;;;5.32;2.67;;;;;14.40;99714.00;;;;5069214;28;20098;-73
2021/05/29 07:27:33;;;;;;;4.40;3.20;;;;;14.40;99731.00;;;;5068553;28;20067;-74
2021/05/29 07:30:06;;;;;;;5.03;2.97;;;;;14.30;99707.00;;;;5068906;28;20107;-73
2021/05/29 07:32:36;;;;;;;5.03;3.40;;;;;14.30;99705.00;;;;5068717;28;20040;-73
2021/05/29 07:35:04;;;;;;;9.25;3.92;;;;;14.30;99709.00;;;;5068792;28;20024;-73
2021/05/29 07:37:30;;;;;;;7.90;4.05;;;;;14.30;99705.00;;;;5068406;28;20025;-73
2021/05/29 07:39:57;;;;;;;11.77;3.80;;;;;14.20;99707.00;;;;5068536;28;20028;-73
2021/05/29 07:42:24;;;;;;;10.13;4.38;;;;;14.10;99708.00;;;;5068772;28;20111;-73
2021/05/29 07:44:50;;;;;;;8.45;4.13;;;;;14.00;99717.00;;;;5068610;28;20479;-73
2021/05/29 07:47:18;;;;;;;6.35;3.80;;;;;14.00;99725.00;;;;5068437;28;20075;-73
2021/05/29 07:49:45;;;;;;;5.82;4.00;;;;;14.00;99724.00;;;;5068229;28;20519;-73
2021/05/29 07:52:12;;;;;;;8.30;4.35;;;;;14.00;99739.00;;;;5068454;28;20630;-73
2021/05/29 07:54:38;;;;;;;10.35;5.10;;;;;14.00;99743.00;;;;5067835;28;20036;-73
2021/05/29 07:57:07;;;;;;;12.20;4.72;;;;;14.00;99745.00;;;;5068226;28;20020;-73
2021/05/29 07:59:34;;;;;;;5.63;3.92;;;;;13.90;99745.00;;;;5068575;28;20833;-73
2021/05/29 08:02:00;;;;;;;7.47;4.15;;;;;13.90;99749.00;;;;5068382;28;20771;-73
2021/05/29 08:04:27;;;;;;;6.22;4.32;;;;;13.90;99767.00;;;;5068127;28;20028;-74
2021/05/29 08:06:53;;;;;;;8.98;3.97;;;;;13.80;99746.00;;;;5068899;28;20031;-73
2021/05/29 08:09:20;;;;;;;8.52;3.85;;;;;13.80;99746.00;;;;5067845;28;20032;-73
2021/05/29 08:11:46;;;;;;;9.73;4.38;;;;;13.80;99765.00;;;;5068238;28;20028;-73
2021/05/29 08:14:14;;;;;;;12.05;5.00;;;;;13.80;99755.00;;;;5067777;28;20036;-73
2021/05/29 08:16:40;;;;;;;11.40;4.78;;;;;13.80;99753.00;;;;5067768;28;20020;-73
2021/05/29 08:19:09;;;;;;;13.45;4.05;;;;;13.70;99755.00;;;;5067372;28;20033;-74
2021/05/29 08:21:54;;;;;;;9.40;3.90;;;;;13.70;99756.00;;;;5068032;28;20036;-73
2021/05/29 08:24:20;;;;;;;13.95;5.05;;;;;13.80;99762.00;;;;5067700;28;20048;-73
2021/05/29 08:26:47;;;;;;;11.85;4.20;;;;;13.80;99776.00;;;;5067729;28;20028;-74
2021/05/29 08:29:16;;;;;;;10.77;4.95;;;;;13.80;99785.00;;;;5068341;28;20029;-74
2021/05/29 08:31:43;;;;;;;9.05;4.80;;;;;13.90;99784.00;;;;5068263;28;20038;-73
2021/05/29 08:34:10;;;;;;;13.30;4.70;;;;;13.80;99793.00;;;;5067309;28;20808;-74
2021/05/29 08:36:41;;;;;;;9.32;4.25;;;;;13.80;99775.00;;;;5067782;28;20719;-74
2021/05/29 08:39:11;;;;;;;6.50;4.25;;;;;13.80;99794.00;;;;5067659;28;20067;-74
2021/05/29 08:41:39;;;;;;;8.52;4.40;;;;;13.80;99790.00;;;;5067611;28;20037;-74
2021/05/29 08:44:10;;;;;;;11.13;4.32;;;;;13.80;99812.00;;;;5067623;28;20037;-74
2021/05/29 08:46:38;;;;;;;8.38;3.80;;;;;13.80;99808.00;;;;5065773;28;20558;-74
2021/05/29 08:49:07;;;;;;;19.60;4.72;;;;;13.90;99822.00;;;;5067262;28;20067;-74
2021/05/29 08:51:33;;;;;;;16.95;5.10;;;;;14.00;99812.00;;;;5067307;28;20017;-74
2021/05/29 08:54:01;;;;;;;16.33;5.53;;;;;14.00;99828.00;;;;5067044;28;20032;-74
2021/05/29 08:56:29;;;;;;;10.60;5.07;;;;;14.10;99837.00;;;;5067844;28;20040;-74
2021/05/29 08:58:56;;;;;;;11.80;5.38;;;;;14.20;99835.00;;;;5067009;28;20028;-74
2021/05/29 09:01:24;;;;;;;10.85;5.25;;;;;14.20;99841.00;;;;5066675;28;20024;-74
2021/05/29 09:03:52;;;;;;;11.23;5.30;;;;;14.20;99849.00;;;;5067195;28;20025;-74
2021/05/29 09:06:42;;;;;;;11.57;5.78;;;;;14.30;99869.00;;;;5066969;28;20078;-73
2021/05/29 09:09:14;;;;;;;10.30;4.88;;;;;14.30;99859.00;;;;5065708;28;20111;-74
2021/05/29 09:11:53;;;;;;;10.32;5.15;;;;;14.30;99859.00;;;;5066390;28;20036;-73
2021/05/29 09:14:23;;;;;;;7.55;3.95;;;;;14.30;99883.00;;;;5066336;28;20090;-72
2021/05/29 09:17:19;;;;;;;14.95;4.85;;;;;14.30;99883.00;;;;5066674;28;20029;-74
2021/05/29 09:20:02;;;;;;;11.02;4.78;;;;;14.30;99893.00;;;;5066507;28;20407;-75
2021/05/29 09:22:33;;;;;;;22.98;5.20;;;;;14.20;99879.00;;;;5067146;28;20020;-74
2021/05/29 09:25:08;;;;;;;17.58;4.32;;;;;14.30;99892.00;;;;5065756;28;20048;-74
2021/05/29 09:27:38;;;;;;;10.90;4.63;;;;;14.30;99884.00;;;;5066480;28;20024;-74
2021/05/29 09:30:08;;;;;;;13.07;5.25;;;;;14.30;99884.00;;;;5066473;28;20032;-74
2021/05/29 09:32:35;;;;;;;14.95;5.15;;;;;14.30;99900.00;;;;5065668;28;20612;-74
2021/05/29 09:35:10;;;;;;;14.32;6.53;;;;;14.30;99909.00;;;;5066511;28;20074;-74
2021/05/29 09:37:37;;;;;;;15.38;5.85;;;;;14.30;99918.00;;;;5066340;28;20043;-74
2021/05/29 09:40:10;;;;;;;12.88;4.80;;;;;14.20;99917.00;;;;5066000;28;20039;-73
2021/05/29 09:42:41;;;;;;;11.35;4.65;;;;;14.20;99925.00;;;;5066266;28;20033;-73
2021/05/29 09:45:40;;;;;;;19.48;5.93;;;;;14.20;99933.00;;;;5065864;28;20033;-74
2021/05/29 09:48:17;;;;;;;12.57;5.95;;;;;14.20;99932.00;;;;5065070;28;20482;-73
2021/05/29 09:51:20;;;;;;;18.85;7.75;;;;;14.20;99942.00;;;;5066136;28;20016;-73
2021/05/29 09:53:49;;;;;;;15.52;9.43;;;;;14.20;99949.00;;;;5062901;28;20052;-74
2021/05/29 09:56:44;;;;;;;13.05;7.43;;;;;14.30;99969.00;;;;5064717;28;20055;-73
2021/05/29 09:59:20;;;;;;;9.90;6.03;;;;;14.30;99962.00;;;;5065161;28;20115;-74
2021/05/29 10:01:51;;;;;;;16.00;7.95;;;;;14.20;99949.00;;;;5065619;28;20115;-75
2021/05/29 10:04:27;;;;;;;;;;;;;14.20;99958.00;;;;5066576;28;20103;-73
2021/05/29 10:06:58;;;;;;;10.43;5.15;;;;;14.20;99963.00;;;;5065965;28;19918;-74
2021/05/29 10:09:25;;;;;;;;;;;;;14.20;99968.00;;;;5066086;28;20100;-74
2021/05/29 10:11:53;;;;;;;15.38;6.95;;;;;14.20;99974.00;;;;5066198;28;20282;-75
2021/05/29 10:14:19;;;;;;;21.08;7.55;;;;;14.20;99968.00;;;;5064134;28;20119;-73
2021/05/29 10:27:55;;;;;;;13.38;7.53;;;;;14.30;100001.00;;;;5123868;27;20215;-73
2021/05/29 10:30:25;;;;;;;16.75;5.75;;;;;14.30;100013.00;;;;5103937;28;20118;-73
2021/05/29 10:33:15;;;;;;;18.85;6.70;;;;;14.30;100013.00;;;;5103618;28;20504;-74
2021/05/29 10:35:43;;;;;;;14.13;5.80;;;;;14.40;100018.00;;;;5103390;28;20114;-73
2021/05/29 10:38:10;;;;;;;16.65;8.23;;;;;14.50;100028.00;;;;5103461;28;20032;-74
2021/05/29 10:40:42;;;;;;;12.52;7.65;;;;;14.60;100024.00;;;;5104362;28;20479;-73
2021/05/29 10:43:15;;;;;;;12.45;5.95;;;;;14.60;100038.00;;;;5103210;28;20032;-73
2021/05/29 10:45:51;;;;;;;10.55;5.95;;;;;14.70;100026.00;;;;5102873;28;20043;-73
2021/05/29 10:48:25;;;;;;;9.73;5.35;;;;;14.70;100035.00;;;;5103153;28;20390;-73
2021/05/29 10:51:06;;;;;;;12.50;5.40;;;;;14.70;100040.00;;;;5103412;28;20107;-74
2021/05/29 10:53:54;;;;;;;10.20;5.70;;;;;14.80;100052.00;;;;5103197;28;20094;-74
2021/05/29 10:56:21;;;;;;;13.18;5.53;;;;;14.80;100051.00;;;;5103426;28;20457;-74
2021/05/29 10:59:03;;;;;;;12.07;5.60;;;;;14.80;100063.00;;;;5103384;28;20028;-73
2021/05/29 11:01:36;;;;;;;;;;;;;14.90;100076.00;;;;5103132;28;20024;-73
2021/05/29 11:04:33;;;;;;;12.70;5.00;;;;;14.90;100083.00;;;;5103056;28;20275;-73
2021/05/29 11:07:16;;;;;;;11.52;5.38;;;;;15.00;100095.00;;;;5101959;28;20153;-74
2021/05/29 11:09:49;;;;;;;7.88;4.72;;;;;15.00;100090.00;;;;5102572;28;20039;-73
2021/05/29 11:12:16;;;;;;;11.50;4.22;;;;;15.00;100101.00;;;;5102889;28;20430;-73
2021/05/29 11:14:53;;;;;;;6.28;4.60;;;;;15.00;100106.00;;;;5102477;28;20032;-73
2021/05/29 11:17:25;;;;;;;6.40;4.70;;;;;15.00;100110.00;;;;5085452;28;20072;-73
2021/05/29 11:20:07;;;;;;;9.50;5.20;;;;;15.20;100105.00;;;;5082604;28;20036;-74
2021/05/29 11:22:40;;;;;;;;;;;;;15.50;100092.00;;;;5081975;28;20028;-74
2021/05/29 11:25:08;;;;;;;8.80;5.07;;;;;15.50;100107.00;;;;5081915;28;19917;-74
2021/05/29 11:27:37;;;;;;;7.88;5.03;;;;;15.40;100121.00;;;;5075367;28;20052;-75
2021/05/29 11:30:14;;;;;;;10.73;4.30;;;;;15.50;100120.00;;;;5068442;28;20028;-74
2021/05/29 11:35:26;;;;;;;;;;;;;16.10;100125.00;;;;5068798;28;20071;-73
2021/05/29 11:38:03;;;;;;;12.13;5.30;;;;;15.80;100163.00;;;;5067690;28;19923;-73
2021/05/29 11:41:08;;;;;;;7.90;4.22;;;;;15.70;100175.00;;;;5068122;28;20028;-74
2021/05/29 11:43:37;;;;;;;5.03;3.60;;;;;15.50;100164.00;;;;5039008;28;20040;-73
2021/05/29 11:46:21;;;;;;;9.52;6.88;;;;;15.60;100168.00;;;;5067751;28;20051;-74
2021/05/29 11:49:08;;;;;;;9.57;4.47;;;;;15.50;100182.00;;;;5068139;28;20032;-75
2021/05/29 11:51:37;;;;;;;7.90;4.55;;;;;15.50;100186.00;;;;5067655;28;20025;-74
2021/05/29 11:54:11;;;;;;;8.25;4.63;;;;;15.50;100178.00;;;;5068573;28;20030;-74
2021/05/29 11:56:40;;;;;;;8.05;5.97;;;;;15.50;100172.00;;;;5067088;28;20032;-74
2021/05/29 11:59:09;;;;;;;9.55;5.55;;;;;15.60;100181.00;;;;5068388;28;20021;-74
2021/05/29 12:01:38;;;;;;;9.82;6.80;;;;;15.60;100190.00;;;;5067814;28;20021;-74
2021/05/29 12:04:07;;;;;;;10.23;6.50;;;;;15.60;100181.00;;;;5067832;28;20032;-73
2021/05/29 12:06:43;;;;;;;11.48;6.32;;;;;15.60;100213.00;;;;5067222;28;20032;-74
2021/05/29 12:09:17;;;;;;;9.07;6.50;;;;;15.60;100197.00;;;;5067698;28;20448;-73
2021/05/29 12:11:50;;;;;;;9.25;6.82;;;;;15.60;100220.00;;;;5067640;28;20068;-73
2021/05/29 12:14:24;;;;;;;13.23;8.85;;;;;15.60;100211.00;;;;5067360;28;20024;-74
2021/05/29 12:16:59;;;;;;;10.45;7.40;;;;;15.60;100221.00;;;;5067356;28;20059;-74
2021/05/29 12:19:33;;;;;;;10.55;8.30;;;;;15.80;100204.00;;;;5067520;28;20024;-74
2021/05/29 12:22:08;;;;;;;14.25;7.93;;;;;15.90;100216.00;;;;5068431;28;20140;-78
2021/05/29 12:24:39;;;;;;;17.52;9.73;;;;;16.00;100193.00;;;;5067566;28;20066;-74
2021/05/29 12:27:07;;;;;;;22.80;11.50;;;;;16.20;100212.00;;;;5067822;28;20494;-74
2021/05/29 12:29:35;;;;;;;19.02;10.93;;;;;16.30;100201.00;;;;5068393;28;20051;-73
2021/05/29 12:32:02;;;;;;;18.02;10.20;;;;;16.50;100200.00;;;;5066594;28;20028;-73
2021/05/29 12:34:30;;;;;;;13.00;8.60;;;;;17.10;100187.00;;;;5066954;28;20448;-75
2021/05/29 12:37:03;;;;;;;14.02;8.60;;;;;16.90;100202.00;;;;5067177;28;20453;-73
2021/05/29 12:39:49;;;;;;;17.67;11.82;;;;;17.10;100201.00;;;;5066415;28;20043;-73
2021/05/29 12:42:20;;;;;;;15.50;8.45;;;;;17.10;100214.00;;;;5066403;28;20052;-74
2021/05/29 12:44:47;;;;;;;;;;;;;17.20;100224.00;;;;5067943;28;20017;-73
2021/05/29 12:47:24;;;;;;;16.08;8.57;;;;;17.40;100222.00;;;;5066656;28;20679;-74
2021/05/29 12:49:52;;;;;;;19.52;9.52;;;;;17.40;100228.00;;;;5066619;28;20044;-73
2021/05/29 12:52:37;;;;;;;14.90;9.48;;;;;16.90;100237.00;;;;5067119;28;20032;-73
2021/05/29 12:55:08;;;;;;;18.33;10.90;;;;;17.10;100216.00;;;;5065002;28;20074;-73
2021/05/29 12:57:39;;;;;;;17.13;10.73;;;;;17.50;100222.00;;;;5066253;28;20434;-73
2021/05/29 13:00:17;;;;;;;22.40;10.15;;;;;17.30;100228.00;;;;5066431;28;20550;-73